Time;durP1;ratioP1;P1;durP2;ratioP2;P2;SDS_P1;SDS_P2;PMS_P1;PMS_P2;Temp;Humidity;BMP_temperature;BMP_pressure;BME280_temperature;BME280_humidity;BME280_pressure;Samples;Min_cycle;Max_cycle;Signal;HPM_P1;HPM_P2
2021/07/08 00:00:40;;;;;;;0.97;0.87;;;;;;;;;;4437217;28;20032;-61
2021/07/08 00:02:51;;;;;;;1.55;0.80;;;;;;;;;;4442694;28;20106;-62
2021/07/08 00:05:08;;;;;;;1.17;0.90;;;;;;;;;;4503741;28;20036;-61
2021/07/08 00:07:19;;;;;;;1.08;0.80;;;;;;;;;;4497727;28;20030;-61
2021/07/08 00:09:29;;;;;;;1.37;1.00;;;;;;;;;;4436078;28;20035;-62
2021/07/08 00:11:40;;;;;;;2.93;1.27;;;;;;;;;;4438974;28;20071;-62
2021/07/08 00:13:50;;;;;;;1.53;0.80;;;;;;;;;;4442130;28;20048;-62
2021/07/08 00:16:01;;;;;;;1.50;1.00;;;;;;;;;;4441770;28;20039;-61
2021/07/08 00:18:12;;;;;;;1.20;0.80;;;;;;;;;;4436981;28;20187;-61
2021/07/08 00:20:24;;;;;;;1.85;1.05;;;;;;;;;;4484116;28;20081;-61
2021/07/08 00:22:35;;;;;;;1.20;0.90;;;;;;;;;;4500627;28;20034;-62
2021/07/08 00:24:46;;;;;;;1.33;0.73;;;;;;;;;;4498693;28;20589;-62
2021/07/08 00:26:56;;;;;;;1.13;0.80;;;;;;;;;;4438845;28;20044;-61
2021/07/08 00:29:07;;;;;;;3.33;0.87;;;;;;;;;;4498572;28;20375;-61
2021/07/08 00:31:18;;;;;;;1.00;0.90;;;;;;;;;;4437970;28;20055;-61
2021/07/08 00:33:29;;;;;;;2.15;0.90;;;;;;;;;;4500872;28;20046;-61
2021/07/08 00:35:40;;;;;;;0.90;0.80;;;;;;;;;;4499950;28;20033;-62
2021/07/08 00:37:51;;;;;;;2.22;0.98;;;;;;;;;;4483607;28;20042;-61
2021/07/08 00:40:03;;;;;;;1.58;0.80;;;;;;;;;;4499894;28;20029;-62
2021/07/08 00:42:14;;;;;;;1.42;0.95;;;;;;;;;;4436514;28;20051;-61
2021/07/08 00:44:24;;;;;;;1.10;0.73;;;;;;;;;;4439041;28;20051;-62
2021/07/08 00:46:35;;;;;;;0.60;0.60;;;;;;;;;;4438605;28;20032;-62
2021/07/08 00:48:45;;;;;;;1.73;0.77;;;;;;;;;;4498284;28;20969;-61
2021/07/08 00:50:56;;;;;;;0.93;0.73;;;;;;;;;;4434256;28;20074;-61
2021/07/08 00:53:06;;;;;;;1.73;0.70;;;;;;;;;;4437130;28;20048;-61
2021/07/08 00:55:17;;;;;;;1.30;0.70;;;;;;;;;;4492342;28;20081;-61
2021/07/08 00:57:27;;;;;;;1.27;0.80;;;;;;;;;;4446530;28;20040;-62
2021/07/08 00:59:45;;;;;;;1.80;1.00;;;;;;;;;;4449054;28;20028;-61
2021/07/08 01:01:57;;;;;;;1.75;0.90;;;;;;;;;;4504733;28;20041;-61
2021/07/08 01:04:08;;;;;;;1.88;0.80;;;;;;;;;;4503565;28;20038;-61
2021/07/08 01:06:19;;;;;;;1.27;0.90;;;;;;;;;;4503753;28;20034;-61
2021/07/08 01:08:30;;;;;;;1.93;1.00;;;;;;;;;;4503728;28;20761;-61
2021/07/08 01:10:42;;;;;;;1.80;0.95;;;;;;;;;;4444676;28;20031;-61
2021/07/08 01:12:52;;;;;;;1.70;0.93;;;;;;;;;;4505888;28;20041;-61
2021/07/08 01:15:05;;;;;;;1.43;0.87;;;;;;;;;;4441877;28;20656;-61
2021/07/08 01:17:15;;;;;;;2.88;1.20;;;;;;;;;;4448132;28;20039;-61
2021/07/08 01:19:27;;;;;;;1.00;0.70;;;;;;;;;;4446569;28;20476;-61
2021/07/08 01:21:37;;;;;;;0.85;0.82;;;;;;;;;;4448945;28;20126;-61
2021/07/08 01:23:48;;;;;;;1.10;0.83;;;;;;;;;;4439067;28;20159;-61
2021/07/08 01:25:58;;;;;;;1.20;0.80;;;;;;;;;;4502893;28;20327;-61
2021/07/08 01:28:10;;;;;;;0.73;0.67;;;;;;;;;;4505136;28;20125;-61
2021/07/08 01:30:21;;;;;;;1.02;0.70;;;;;;;;;;4441371;28;20042;-62
2021/07/08 01:32:31;;;;;;;1.00;0.90;;;;;;;;;;4443406;28;20046;-61
2021/07/08 01:34:42;;;;;;;0.77;0.67;;;;;;;;;;4503937;28;20025;-61
2021/07/08 01:36:52;;;;;;;1.57;0.80;;;;;;;;;;4521237;28;20068;-61
2021/07/08 01:39:04;;;;;;;0.70;0.70;;;;;;;;;;4442255;28;20400;-61
2021/07/08 01:41:15;;;;;;;1.42;0.80;;;;;;;;;;4438879;28;20110;-61
2021/07/08 01:43:25;;;;;;;1.07;0.70;;;;;;;;;;4504347;28;20113;-62
2021/07/08 01:45:36;;;;;;;1.23;0.70;;;;;;;;;;4451382;28;20278;-61
2021/07/08 01:47:46;;;;;;;3.43;1.20;;;;;;;;;;4442212;28;20065;-62
2021/07/08 01:49:57;;;;;;;1.20;0.90;;;;;;;;;;4444308;28;20101;-61
2021/07/08 01:52:08;;;;;;;2.83;0.80;;;;;;;;;;4503874;28;20044;-61
2021/07/08 01:54:19;;;;;;;1.35;0.82;;;;;;;;;;4446544;28;20046;-63
2021/07/08 01:56:30;;;;;;;1.83;0.90;;;;;;;;;;4444874;28;20493;-61
2021/07/08 01:58:41;;;;;;;2.20;0.90;;;;;;;;;;4446110;28;20202;-61
2021/07/08 02:00:52;;;;;;;1.50;0.90;;;;;;;;;;4445183;28;20093;-61
2021/07/08 02:03:02;;;;;;;0.80;0.80;;;;;;;;;;4443703;28;20047;-61
2021/07/08 02:05:13;;;;;;;0.93;0.70;;;;;;;;;;4519350;28;20048;-61
2021/07/08 02:07:23;;;;;;;2.20;0.90;;;;;;;;;;4439220;28;20488;-61
2021/07/08 02:09:34;;;;;;;2.07;0.80;;;;;;;;;;4438448;28;22967;-60
2021/07/08 02:11:44;;;;;;;1.70;0.93;;;;;;;;;;4449240;28;20044;-61
2021/07/08 02:13:55;;;;;;;2.17;0.80;;;;;;;;;;4440567;28;20086;-61
2021/07/08 02:16:08;;;;;;;2.43;1.20;;;;;;;;;;4440342;28;20038;-61
2021/07/08 02:18:18;;;;;;;3.13;1.10;;;;;;;;;;4442008;28;20047;-61
2021/07/08 02:20:29;;;;;;;3.20;1.40;;;;;;;;;;4517649;28;20095;-61
2021/07/08 02:22:40;;;;;;;4.57;1.75;;;;;;;;;;4515495;28;20033;-61
2021/07/08 02:24:51;;;;;;;1.73;1.15;;;;;;;;;;4440948;28;21275;-62
2021/07/08 02:27:01;;;;;;;3.67;1.10;;;;;;;;;;4438291;28;20040;-61
2021/07/08 02:29:11;;;;;;;2.27;1.10;;;;;;;;;;4503679;28;20461;-61
2021/07/08 02:31:22;;;;;;;1.50;1.00;;;;;;;;;;4440059;28;20418;-61
2021/07/08 02:33:33;;;;;;;1.47;0.90;;;;;;;;;;4497674;28;20049;-61
2021/07/08 02:35:44;;;;;;;;;;;;;;;;;;4501672;28;20042;-61
2021/07/08 02:37:55;;;;;;;1.80;0.80;;;;;;;;;;4443227;28;19923;-61
2021/07/08 02:40:11;;;;;;;0.90;0.80;;;;;;;;;;4443627;28;20039;-62
2021/07/08 02:42:21;;;;;;;1.50;0.85;;;;;;;;;;4500364;28;20076;-61
2021/07/08 02:44:33;;;;;;;1.53;0.83;;;;;;;;;;4501728;28;20028;-61
2021/07/08 02:46:43;;;;;;;2.60;1.00;;;;;;;;;;4436068;28;20049;-61
2021/07/08 02:48:54;;;;;;;2.03;0.80;;;;;;;;;;4506435;28;20068;-61
2021/07/08 02:51:04;;;;;;;1.97;0.90;;;;;;;;;;4500816;28;20054;-61
2021/07/08 02:53:15;;;;;;;1.27;0.90;;;;;;;;;;4501479;28;20085;-62
2021/07/08 02:55:25;;;;;;;1.60;0.80;;;;;;;;;;4502962;28;20136;-62
2021/07/08 02:57:38;;;;;;;1.10;0.90;;;;;;;;;;4498687;28;20584;-61
2021/07/08 02:59:48;;;;;;;1.52;0.80;;;;;;;;;;4442526;28;20625;-61
2021/07/08 03:01:59;;;;;;;1.43;1.00;;;;;;;;;;4500150;28;20120;-61
2021/07/08 03:04:09;;;;;;;0.90;0.70;;;;;;;;;;4438493;28;20386;-61
2021/07/08 03:06:20;;;;;;;1.73;0.80;;;;;;;;;;4441062;28;20048;-61
2021/07/08 03:08:30;;;;;;;1.50;0.93;;;;;;;;;;4434234;28;20042;-61
2021/07/08 03:10:41;;;;;;;1.00;0.77;;;;;;;;;;4441494;28;20044;-61
2021/07/08 03:12:52;;;;;;;2.13;1.00;;;;;;;;;;4503846;28;20049;-61
2021/07/08 03:15:07;;;;;;;2.53;0.82;;;;;;;;;;4439881;28;20301;-61
2021/07/08 03:17:18;;;;;;;2.85;0.80;;;;;;;;;;4463170;28;21537;-62
2021/07/08 03:19:28;;;;;;;2.27;1.03;;;;;;;;;;4502913;28;20085;-61
2021/07/08 03:21:39;;;;;;;0.83;0.73;;;;;;;;;;4502771;28;20041;-61
2021/07/08 03:23:49;;;;;;;1.63;0.83;;;;;;;;;;4442815;28;20470;-61
2021/07/08 03:25:59;;;;;;;1.57;1.10;;;;;;;;;;4502544;28;20525;-61
2021/07/08 03:28:11;;;;;;;1.53;0.80;;;;;;;;;;4445681;28;20036;-61
2021/07/08 03:30:23;;;;;;;2.05;0.80;;;;;;;;;;4497468;28;20108;-61
2021/07/08 03:32:33;;;;;;;1.20;0.73;;;;;;;;;;4438163;28;20518;-61
2021/07/08 03:34:43;;;;;;;0.80;0.80;;;;;;;;;;4440134;28;20050;-61
2021/07/08 03:36:54;;;;;;;2.23;0.87;;;;;;;;;;4440894;28;20067;-61
2021/07/08 03:39:05;;;;;;;2.30;0.77;;;;;;;;;;4438068;28;20040;-61
2021/07/08 03:41:16;;;;;;;1.58;0.80;;;;;;;;;;4498400;28;20045;-61
2021/07/08 03:43:26;;;;;;;0.77;0.70;;;;;;;;;;4438375;28;20044;-61
2021/07/08 03:45:36;;;;;;;1.87;0.73;;;;;;;;;;4437917;28;20110;-61
2021/07/08 03:47:47;;;;;;;0.70;0.70;;;;;;;;;;4499101;28;20037;-61
2021/07/08 03:49:58;;;;;;;1.87;0.90;;;;;;;;;;4443364;28;20125;-61
2021/07/08 03:52:08;;;;;;;2.63;0.90;;;;;;;;;;4501859;28;20964;-61
2021/07/08 03:54:18;;;;;;;1.63;0.87;;;;;;;;;;4437524;28;20113;-61
2021/07/08 03:56:29;;;;;;;0.83;0.80;;;;;;;;;;4497919;28;26987;-62
2021/07/08 03:58:40;;;;;;;1.60;1.10;;;;;;;;;;4439225;28;20553;-61
2021/07/08 04:00:52;;;;;;;2.42;0.90;;;;;;;;;;4434726;28;20046;-61
2021/07/08 04:03:05;;;;;;;2.22;0.90;;;;;;;;;;4499339;28;20688;-62
2021/07/08 04:05:16;;;;;;;1.45;0.88;;;;;;;;;;4503372;28;20148;-61
2021/07/08 04:07:26;;;;;;;2.55;0.90;;;;;;;;;;4498223;28;20057;-61
2021/07/08 04:09:37;;;;;;;0.80;0.70;;;;;;;;;;4512199;28;20045;-61
2021/07/08 04:11:47;;;;;;;3.37;0.87;;;;;;;;;;4431757;28;20040;-61
2021/07/08 04:13:57;;;;;;;2.33;1.00;;;;;;;;;;4500807;28;20034;-61
2021/07/08 04:16:08;;;;;;;3.27;0.70;;;;;;;;;;4438979;28;20036;-61
2021/07/08 04:18:19;;;;;;;2.42;0.82;;;;;;;;;;4498061;28;20029;-61
2021/07/08 04:20:30;;;;;;;2.20;0.80;;;;;;;;;;4497028;28;20720;-61
2021/07/08 04:22:41;;;;;;;1.00;0.70;;;;;;;;;;4499747;28;20065;-62
2021/07/08 04:24:51;;;;;;;1.13;0.80;;;;;;;;;;4440909;28;20051;-61
2021/07/08 04:27:02;;;;;;;1.33;0.70;;;;;;;;;;4440534;28;20044;-61
2021/07/08 04:29:12;;;;;;;2.63;1.00;;;;;;;;;;4436778;28;20506;-62
2021/07/08 04:31:23;;;;;;;1.47;0.80;;;;;;;;;;4440947;28;20121;-61
2021/07/08 04:33:36;;;;;;;1.05;0.82;;;;;;;;;;4500221;28;20620;-61
2021/07/08 04:35:46;;;;;;;0.90;0.82;;;;;;;;;;4439327;28;20126;-61
2021/07/08 04:37:58;;;;;;;0.70;0.70;;;;;;;;;;4501272;28;20161;-61
2021/07/08 04:40:11;;;;;;;0.95;0.70;;;;;;;;;;4440742;28;20043;-61
2021/07/08 04:42:22;;;;;;;3.00;0.80;;;;;;;;;;4437760;28;20036;-61
2021/07/08 04:44:32;;;;;;;2.03;0.90;;;;;;;;;;4481551;28;20049;-61
2021/07/08 04:46:43;;;;;;;1.73;0.87;;;;;;;;;;4434556;28;20543;-63
2021/07/08 04:48:54;;;;;;;2.27;0.90;;;;;;;;;;4434458;28;20038;-61
2021/07/08 04:51:05;;;;;;;4.35;1.05;;;;;;;;;;4437538;28;20051;-61
2021/07/08 04:53:17;;;;;;;1.57;1.00;;;;;;;;;;4501091;28;20564;-61
2021/07/08 04:55:27;;;;;;;2.33;0.95;;;;;;;;;;4440191;28;20042;-61
2021/07/08 04:57:37;;;;;;;1.90;1.33;;;;;;;;;;4438320;28;20044;-61
2021/07/08 04:59:48;;;;;;;2.80;1.10;;;;;;;;;;4487208;28;21056;-60
2021/07/08 05:01:58;;;;;;;1.50;0.90;;;;;;;;;;4434983;28;20035;-61
2021/07/08 05:04:09;;;;;;;1.97;0.97;;;;;;;;;;4497440;28;20038;-61
2021/07/08 05:06:19;;;;;;;1.40;0.83;;;;;;;;;;4493687;28;20034;-61
2021/07/08 05:08:30;;;;;;;2.93;1.30;;;;;;;;;;4439926;28;20051;-61
2021/07/08 05:10:40;;;;;;;1.57;0.97;;;;;;;;;;4437474;28;20044;-61
2021/07/08 05:12:51;;;;;;;1.17;0.97;;;;;;;;;;4441004;28;20062;-60
2021/07/08 05:15:01;;;;;;;2.87;1.20;;;;;;;;;;4438549;28;20039;-61
2021/07/08 05:17:12;;;;;;;1.73;1.10;;;;;;;;;;4499248;28;20615;-61
2021/07/08 05:19:22;;;;;;;2.53;1.17;;;;;;;;;;4443752;28;20911;-61
2021/07/08 05:21:33;;;;;;;1.27;0.90;;;;;;;;;;4440236;28;20044;-61
2021/07/08 05:23:43;;;;;;;1.85;0.98;;;;;;;;;;4436162;28;20107;-61
2021/07/08 05:25:54;;;;;;;1.97;1.03;;;;;;;;;;4498995;28;20045;-61
2021/07/08 05:28:04;;;;;;;1.80;0.90;;;;;;;;;;4434119;28;20041;-61
2021/07/08 05:30:15;;;;;;;3.20;1.13;;;;;;;;;;4445712;28;20040;-61
2021/07/08 05:32:26;;;;;;;2.27;0.90;;;;;;;;;;4498223;28;20040;-61
2021/07/08 05:34:37;;;;;;;1.25;0.90;;;;;;;;;;4497396;28;20069;-61
2021/07/08 05:36:47;;;;;;;1.63;0.80;;;;;;;;;;4500940;28;20102;-61
2021/07/08 05:38:57;;;;;;;1.37;0.93;;;;;;;;;;4437490;28;20044;-61
2021/07/08 05:41:08;;;;;;;1.33;1.00;;;;;;;;;;4499236;28;20034;-60
2021/07/08 05:43:18;;;;;;;2.33;0.93;;;;;;;;;;4500555;28;20156;-61
2021/07/08 05:45:29;;;;;;;1.90;1.10;;;;;;;;;;4441876;28;20035;-61
2021/07/08 05:47:39;;;;;;;1.47;1.00;;;;;;;;;;4437626;28;20043;-61
2021/07/08 05:49:50;;;;;;;1.80;0.90;;;;;;;;;;4439065;28;20115;-61
2021/07/08 05:52:00;;;;;;;1.63;0.90;;;;;;;;;;4502258;28;20049;-61
2021/07/08 05:54:11;;;;;;;2.00;1.03;;;;;;;;;;4436282;28;20087;-60
2021/07/08 05:56:21;;;;;;;1.43;0.83;;;;;;;;;;4441640;28;20096;-61
2021/07/08 05:58:32;;;;;;;1.57;0.80;;;;;;;;;;4436592;28;20039;-61
2021/07/08 06:00:42;;;;;;;1.17;0.90;;;;;;;;;;4436955;28;20507;-61
2021/07/08 06:02:53;;;;;;;3.47;1.20;;;;;;;;;;4451622;28;20909;-60
2021/07/08 06:05:04;;;;;;;1.57;1.00;;;;;;;;;;4502286;28;20406;-61
2021/07/08 06:07:14;;;;;;;2.58;1.00;;;;;;;;;;4437510;28;20154;-61
2021/07/08 06:09:25;;;;;;;2.23;1.17;;;;;;;;;;4483254;28;20038;-61
2021/07/08 06:11:35;;;;;;;1.47;0.90;;;;;;;;;;4439360;28;20038;-61
2021/07/08 06:13:46;;;;;;;1.73;0.97;;;;;;;;;;4440410;28;20043;-61
2021/07/08 06:15:56;;;;;;;2.03;1.20;;;;;;;;;;4435516;28;20040;-61
2021/07/08 06:18:07;;;;;;;3.33;1.17;;;;;;;;;;4438734;28;20363;-61
2021/07/08 06:20:17;;;;;;;1.40;1.00;;;;;;;;;;4488572;28;20034;-61
2021/07/08 06:22:28;;;;;;;2.73;1.03;;;;;;;;;;4503858;28;20273;-61
2021/07/08 06:24:38;;;;;;;3.27;1.20;;;;;;;;;;4440092;28;20039;-61
2021/07/08 06:27:14;;;;;;;1.23;1.10;;;;;;;;;;4485958;28;20121;-61
2021/07/08 06:29:24;;;;;;;3.22;1.23;;;;;;;;;;4516311;28;20041;-60
2021/07/08 06:31:35;;;;;;;2.00;1.10;;;;;;;;;;4501640;28;20045;-61
2021/07/08 06:33:45;;;;;;;2.00;1.10;;;;;;;;;;4489675;28;20466;-61
2021/07/08 06:35:56;;;;;;;2.83;1.10;;;;;;;;;;4499686;28;20038;-61
2021/07/08 06:38:06;;;;;;;2.37;1.23;;;;;;;;;;4516234;28;20038;-61
2021/07/08 06:40:17;;;;;;;2.43;1.10;;;;;;;;;;4437801;28;20185;-61
2021/07/08 06:42:28;;;;;;;1.40;1.10;;;;;;;;;;4501757;28;21300;-60
2021/07/08 06:44:39;;;;;;;1.20;1.00;;;;;;;;;;4443667;28;20105;-61
2021/07/08 06:46:51;;;;;;;2.40;1.08;;;;;;;;;;4502884;28;20069;-61
2021/07/08 06:49:01;;;;;;;2.75;1.20;;;;;;;;;;4440052;28;20102;-61
2021/07/08 06:51:12;;;;;;;1.10;0.90;;;;;;;;;;4500389;28;20497;-61
2021/07/08 06:53:23;;;;;;;1.20;0.90;;;;;;;;;;4441280;28;20080;-61
2021/07/08 06:55:34;;;;;;;3.73;1.10;;;;;;;;;;4442791;28;20643;-61
2021/07/08 06:57:51;;;;;;;2.13;1.20;;;;;;;;;;4488041;28;20718;-61
2021/07/08 07:00:03;;;;;;;1.88;1.00;;;;;;;;;;4444900;28;20893;-61
2021/07/08 07:02:13;;;;;;;1.92;1.08;;;;;;;;;;4436690;28;20151;-61
2021/07/08 07:04:24;;;;;;;2.97;1.10;;;;;;;;;;4501484;28;20033;-61
2021/07/08 07:06:34;;;;;;;2.10;0.93;;;;;;;;;;4499284;28;20089;-61
2021/07/08 07:08:45;;;;;;;2.87;1.27;;;;;;;;;;4445961;28;20516;-60
2021/07/08 07:10:56;;;;;;;2.20;1.20;;;;;;;;;;4439834;28;20044;-60
2021/07/08 07:13:11;;;;;;;1.90;1.08;;;;;;;;;;4435730;28;20109;-61
2021/07/08 07:15:26;;;;;;;1.00;0.80;;;;;;;;;;4440220;28;20143;-60
2021/07/08 07:17:38;;;;;;;2.20;1.13;;;;;;;;;;4439027;28;20099;-60
2021/07/08 07:19:48;;;;;;;;;;;;;;;;;;4437185;28;20046;-61
2021/07/08 07:22:01;;;;;;;2.67;1.13;;;;;;;;;;4437397;28;20392;-61
2021/07/08 07:24:11;;;;;;;3.78;1.08;;;;;;;;;;4437511;28;20062;-61
2021/07/08 07:26:22;;;;;;;2.07;1.00;;;;;;;;;;4440917;28;20021;-60
2021/07/08 07:28:32;;;;;;;2.00;1.05;;;;;;;;;;4441543;28;20140;-61
2021/07/08 07:30:43;;;;;;;1.27;1.03;;;;;;;;;;4438796;28;20171;-61
2021/07/08 07:32:54;;;;;;;2.30;1.10;;;;;;;;;;4500577;28;20073;-60
2021/07/08 07:35:05;;;;;;;2.97;1.30;;;;;;;;;;4438368;28;20502;-61
2021/07/08 07:37:15;;;;;;;2.50;1.02;;;;;;;;;;4499103;28;20311;-61
2021/07/08 07:39:26;;;;;;;2.30;1.20;;;;;;;;;;4442004;28;20036;-61
2021/07/08 07:41:36;;;;;;;1.90;0.97;;;;;;;;;;4437234;28;20039;-60
2021/07/08 07:43:48;;;;;;;1.50;0.93;;;;;;;;;;4500206;28;20042;-60
2021/07/08 07:45:58;;;;;;;;;;;;;;;;;;4500972;28;20248;-61
2021/07/08 07:48:09;;;;;;;2.53;1.37;;;;;;;;;;4434490;28;19918;-61
2021/07/08 07:50:22;;;;;;;1.50;0.95;;;;;;;;;;4517845;28;20557;-60
2021/07/08 07:52:33;;;;;;;2.08;0.95;;;;;;;;;;4499828;28;20061;-58
2021/07/08 07:54:43;;;;;;;2.93;1.10;;;;;;;;;;4438813;28;20039;-60
2021/07/08 07:56:54;;;;;;;2.90;1.00;;;;;;;;;;4446949;28;20050;-61
2021/07/08 07:59:04;;;;;;;2.53;1.20;;;;;;;;;;4442589;28;20122;-60
2021/07/08 08:01:15;;;;;;;1.47;1.00;;;;;;;;;;4504211;28;20052;-60
2021/07/08 08:03:26;;;;;;;2.00;1.13;;;;;;;;;;4497513;28;20101;-60
2021/07/08 08:05:38;;;;;;;1.50;1.02;;;;;;;;;;4498160;28;20026;-61
2021/07/08 08:10:20;;;;;;;2.10;1.30;;;;;;;;;;4437720;28;20040;-60
2021/07/08 08:12:30;;;;;;;1.85;1.00;;;;;;;;;;4437960;28;20671;-60
2021/07/08 08:14:41;;;;;;;1.13;1.00;;;;;;;;;;4500334;28;20046;-60
2021/07/08 08:16:51;;;;;;;2.87;1.10;;;;;;;;;;4497827;28;20041;-60
2021/07/08 08:19:02;;;;;;;3.50;1.10;;;;;;;;;;4440838;28;20038;-61
2021/07/08 08:21:13;;;;;;;1.90;1.15;;;;;;;;;;4442567;28;20030;-60
2021/07/08 08:23:23;;;;;;;1.30;1.10;;;;;;;;;;4499294;28;20558;-60
2021/07/08 08:25:34;;;;;;;2.37;1.20;;;;;;;;;;4466406;28;20522;-61
2021/07/08 08:27:44;;;;;;;1.17;1.00;;;;;;;;;;4437043;28;20453;-60
2021/07/08 08:29:54;;;;;;;2.57;1.10;;;;;;;;;;4498233;28;20080;-60
2021/07/08 08:32:05;;;;;;;2.60;1.17;;;;;;;;;;4437401;28;20759;-60
2021/07/08 08:34:16;;;;;;;1.33;1.00;;;;;;;;;;4435399;28;20032;-61
2021/07/08 08:36:26;;;;;;;3.70;1.40;;;;;;;;;;4440220;28;20441;-60
2021/07/08 08:38:36;;;;;;;2.47;1.30;;;;;;;;;;4437912;28;20047;-61
2021/07/08 08:40:49;;;;;;;3.47;1.30;;;;;;;;;;4436060;28;20114;-60
2021/07/08 08:42:59;;;;;;;2.97;1.20;;;;;;;;;;4496925;28;20808;-60
2021/07/08 08:45:17;;;;;;;2.43;1.37;;;;;;;;;;4437704;28;20097;-60
2021/07/08 08:47:27;;;;;;;3.15;1.23;;;;;;;;;;4499167;28;20113;-60
2021/07/08 08:49:39;;;;;;;2.57;1.37;;;;;;;;;;4500053;28;20049;-60
2021/07/08 08:51:50;;;;;;;3.10;1.13;;;;;;;;;;4499041;28;20087;-60
2021/07/08 08:54:00;;;;;;;2.50;1.00;;;;;;;;;;4503300;28;20120;-60
2021/07/08 08:56:11;;;;;;;2.10;1.23;;;;;;;;;;4499522;28;20045;-60
2021/07/08 08:58:22;;;;;;;2.40;1.15;;;;;;;;;;4499174;28;20038;-60
2021/07/08 09:00:40;;;;;;;2.03;0.90;;;;;;;;;;4502121;28;20030;-60
2021/07/08 09:03:05;;;;;;;2.22;0.98;;;;;;;;;;4486521;28;20042;-60
2021/07/08 09:05:18;;;;;;;1.23;1.10;;;;;;;;;;4500725;28;20045;-60
2021/07/08 09:07:34;;;;;;;2.42;1.40;;;;;;;;;;4496281;28;20081;-60
2021/07/08 09:09:45;;;;;;;2.85;1.02;;;;;;;;;;4440203;28;20046;-60
2021/07/08 09:12:13;;;;;;;2.23;1.23;;;;;;;;;;4496029;28;20030;-60
2021/07/08 09:14:23;;;;;;;2.28;1.30;;;;;;;;;;4435871;28;20060;-61
2021/07/08 09:16:38;;;;;;;2.17;1.20;;;;;;;;;;4439329;28;20938;-60
2021/07/08 09:19:08;;;;;;;2.72;1.00;;;;;;;;;;4505531;28;21207;-60
2021/07/08 09:21:21;;;;;;;1.67;1.00;;;;;;;;;;4503144;28;20108;-60
2021/07/08 09:23:31;;;;;;;1.63;1.00;;;;;;;;;;4502505;28;20128;-60
2021/07/08 09:25:43;;;;;;;1.97;1.10;;;;;;;;;;4445512;28;20181;-60
2021/07/08 09:28:15;;;;;;;1.50;1.10;;;;;;;;;;4437799;28;20036;-60
2021/07/08 09:30:30;;;;;;;3.90;1.10;;;;;;;;;;4448729;28;20035;-61
2021/07/08 09:32:40;;;;;;;2.15;1.20;;;;;;;;;;4438943;28;20049;-60
2021/07/08 09:34:57;;;;;;;1.33;1.00;;;;;;;;;;4449045;28;20043;-60
2021/07/08 09:37:15;;;;;;;1.33;0.88;;;;;;;;;;4444133;28;20036;-60
2021/07/08 09:39:30;;;;;;;2.17;1.10;;;;;;;;;;4437284;28;20117;-60
2021/07/08 09:41:52;;;;;;;1.83;1.00;;;;;;;;;;4499971;28;20640;-61
2021/07/08 09:44:18;;;;;;;2.22;1.08;;;;;;;;;;4440765;28;20067;-61
2021/07/08 09:46:34;;;;;;;1.33;0.98;;;;;;;;;;4501922;28;20044;-60
2021/07/08 09:49:07;;;;;;;2.17;1.00;;;;;;;;;;4441222;28;20779;-60
2021/07/08 09:51:28;;;;;;;2.83;1.38;;;;;;;;;;4439832;28;20033;-61
2021/07/08 09:53:49;;;;;;;1.85;1.10;;;;;;;;;;4439466;28;21332;-61
2021/07/08 09:58:27;;;;;;;1.83;1.10;;;;;;;;;;4497171;28;20734;-60
2021/07/08 10:00:37;;;;;;;2.10;1.10;;;;;;;;;;4444755;28;20039;-60
2021/07/08 10:02:53;;;;;;;2.30;0.90;;;;;;;;;;4501308;28;20029;-61
2021/07/08 10:05:03;;;;;;;2.08;1.20;;;;;;;;;;4504873;28;20037;-60
2021/07/08 10:07:14;;;;;;;1.70;0.90;;;;;;;;;;4444869;28;20023;-60
2021/07/08 10:09:25;;;;;;;1.17;0.85;;;;;;;;;;4496873;28;20072;-60
2021/07/08 10:11:37;;;;;;;1.97;0.90;;;;;;;;;;4501043;28;20141;-60
2021/07/08 10:13:47;;;;;;;;;;;;;;;;;;4440545;28;20044;-61
2021/07/08 10:15:59;;;;;;;1.33;0.87;;;;;;;;;;4438651;28;20638;-62
2021/07/08 10:18:12;;;;;;;1.65;1.00;;;;;;;;;;4505854;28;20054;-61
2021/07/08 10:20:23;;;;;;;1.13;0.80;;;;;;;;;;4489131;28;20140;-60
2021/07/08 10:22:34;;;;;;;1.57;0.77;;;;;;;;;;4438730;28;20125;-60
2021/07/08 10:24:44;;;;;;;1.02;0.80;;;;;;;;;;4441462;28;20121;-60
2021/07/08 10:26:55;;;;;;;2.63;0.90;;;;;;;;;;4441940;28;20036;-61
2021/07/08 10:29:08;;;;;;;1.98;1.13;;;;;;;;;;4500549;28;20506;-60
2021/07/08 10:31:21;;;;;;;1.23;0.63;;;;;;;;;;4500799;28;20120;-60
2021/07/08 10:33:32;;;;;;;2.13;0.88;;;;;;;;;;4485925;28;20848;-60
2021/07/08 10:35:44;;;;;;;1.10;0.75;;;;;;;;;;4480427;28;20130;-60
2021/07/08 10:37:55;;;;;;;2.13;0.80;;;;;;;;;;4441338;28;20794;-60
2021/07/08 10:40:07;;;;;;;1.00;0.80;;;;;;;;;;4500003;28;20041;-60
2021/07/08 10:42:49;;;;;;;1.80;0.77;;;;;;;;;;4448025;28;20031;-60
2021/07/08 10:45:00;;;;;;;1.40;0.80;;;;;;;;;;4487331;28;20046;-60
2021/07/08 10:47:30;;;;;;;1.57;0.70;;;;;;;;;;4444479;28;20044;-61
2021/07/08 10:49:41;;;;;;;1.40;0.80;;;;;;;;;;4501657;28;20041;-61
2021/07/08 10:51:51;;;;;;;2.63;0.80;;;;;;;;;;4437345;28;20043;-61
2021/07/08 10:54:25;;;;;;;0.90;0.77;;;;;;;;;;4440640;28;20558;-60
2021/07/08 10:56:36;;;;;;;1.40;0.80;;;;;;;;;;4435607;28;20515;-60
2021/07/08 10:58:52;;;;;;;0.73;0.70;;;;;;;;;;4439036;28;20047;-60
2021/07/08 11:01:03;;;;;;;1.67;0.80;;;;;;;;;;4444374;28;20046;-60
2021/07/08 11:03:40;;;;;;;1.38;0.65;;;;;;;;;;4441257;28;20086;-60
2021/07/08 11:05:54;;;;;;;0.68;0.60;;;;;;;;;;4437746;28;20040;-60
2021/07/08 11:08:05;;;;;;;2.03;0.77;;;;;;;;;;4441451;28;20300;-60
2021/07/08 11:10:32;;;;;;;1.30;0.67;;;;;;;;;;4438336;28;20122;-60
2021/07/08 11:12:44;;;;;;;0.80;0.70;;;;;;;;;;4451201;28;20934;-61
2021/07/08 11:14:54;;;;;;;;;;;;;;;;;;4444335;28;20039;-60
2021/07/08 11:17:11;;;;;;;0.52;0.50;;;;;;;;;;4437178;28;20405;-61
2021/07/08 11:19:21;;;;;;;1.00;0.70;;;;;;;;;;4436058;28;20075;-61
2021/07/08 11:21:51;;;;;;;1.60;0.80;;;;;;;;;;4439090;28;20123;-60
2021/07/08 11:24:25;;;;;;;1.00;0.60;;;;;;;;;;4435801;28;20322;-61
2021/07/08 11:26:55;;;;;;;1.30;0.60;;;;;;;;;;4502455;28;20593;-60
2021/07/08 11:29:06;;;;;;;1.48;0.70;;;;;;;;;;4499597;28;20092;-60
2021/07/08 11:31:16;;;;;;;1.73;0.80;;;;;;;;;;4484341;28;20081;-60
2021/07/08 11:33:28;;;;;;;0.93;0.67;;;;;;;;;;4437130;28;20288;-60
2021/07/08 11:35:40;;;;;;;1.73;0.73;;;;;;;;;;4438229;28;20048;-60
2021/07/08 11:38:07;;;;;;;0.52;0.50;;;;;;;;;;4514376;28;20096;-60
2021/07/08 11:40:20;;;;;;;0.93;0.75;;;;;;;;;;4487465;28;20694;-61
2021/07/08 11:42:33;;;;;;;1.08;0.70;;;;;;;;;;4438823;28;20039;-60
2021/07/08 11:44:43;;;;;;;0.95;0.60;;;;;;;;;;4504164;28;20494;-60
2021/07/08 11:46:54;;;;;;;1.20;0.60;;;;;;;;;;4498685;28;20038;-59
2021/07/08 11:49:05;;;;;;;1.23;0.60;;;;;;;;;;4437849;28;20039;-59
2021/07/08 11:51:17;;;;;;;0.93;0.70;;;;;;;;;;4437838;28;20044;-59
2021/07/08 11:53:27;;;;;;;1.30;0.60;;;;;;;;;;4499470;28;20128;-60
2021/07/08 11:55:40;;;;;;;0.43;0.43;;;;;;;;;;4500755;28;20033;-60
2021/07/08 11:58:03;;;;;;;0.60;0.55;;;;;;;;;;4436610;28;20036;-60
2021/07/08 12:00:32;;;;;;;1.25;0.50;;;;;;;;;;4500497;28;20211;-60
2021/07/08 12:02:43;;;;;;;0.98;0.70;;;;;;;;;;4499390;28;20053;-61
2021/07/08 12:05:10;;;;;;;;;;;;;;;;;;4440940;28;20039;-61
2021/07/08 12:07:20;;;;;;;0.82;0.50;;;;;;;;;;4439534;28;20305;-60
2021/07/08 12:09:30;;;;;;;0.70;0.50;;;;;;;;;;4498412;28;20407;-60
2021/07/08 12:11:42;;;;;;;1.83;0.80;;;;;;;;;;4439923;28;20044;-60
2021/07/08 12:14:22;;;;;;;0.63;0.60;;;;;;;;;;4499146;28;20042;-60
2021/07/08 12:16:40;;;;;;;0.88;0.50;;;;;;;;;;4497966;28;20981;-60
2021/07/08 12:18:51;;;;;;;1.27;0.65;;;;;;;;;;4497969;28;20041;-60
2021/07/08 12:21:15;;;;;;;0.50;0.50;;;;;;;;;;4514466;28;20098;-60
2021/07/08 12:23:38;;;;;;;0.43;0.43;;;;;;;;;;4499971;28;20032;-60
2021/07/08 12:25:49;;;;;;;0.50;0.50;;;;;;;;;;4500127;28;20128;-60
2021/07/08 12:27:59;;;;;;;1.97;0.40;;;;;;;;;;4437150;28;20123;-61
2021/07/08 12:30:17;;;;;;;1.33;0.60;;;;;;;;;;4435487;28;20060;-60
2021/07/08 12:32:28;;;;;;;1.05;0.50;;;;;;;;;;4500537;28;20030;-60
2021/07/08 12:34:47;;;;;;;1.47;0.70;;;;;;;;;;4502504;28;20042;-60
2021/07/08 12:37:09;;;;;;;0.60;0.57;;;;;;;;;;4441623;28;20035;-61
2021/07/08 12:39:25;;;;;;;1.58;0.63;;;;;;;;;;4499027;28;20049;-60
2021/07/08 12:41:36;;;;;;;1.65;0.80;;;;;;;;;;4500879;28;20528;-61
2021/07/08 12:43:46;;;;;;;0.70;0.50;;;;;;;;;;4486902;28;20025;-60
2021/07/08 12:46:08;;;;;;;0.87;0.67;;;;;;;;;;4497133;28;21011;-60
2021/07/08 12:48:18;;;;;;;0.70;0.70;;;;;;;;;;4441593;28;20043;-60
2021/07/08 12:50:36;;;;;;;0.80;0.53;;;;;;;;;;4441593;28;20039;-60
2021/07/08 12:52:47;;;;;;;1.10;0.60;;;;;;;;;;4497747;28;20033;-60
2021/07/08 12:54:57;;;;;;;1.00;0.50;;;;;;;;;;4499977;28;20019;-61
2021/07/08 12:57:16;;;;;;;1.40;0.53;;;;;;;;;;4500346;28;20042;-61
2021/07/08 12:59:26;;;;;;;0.70;0.50;;;;;;;;;;4436091;28;20578;-60
2021/07/08 13:01:36;;;;;;;0.70;0.60;;;;;;;;;;4441306;28;20032;-60
2021/07/08 13:03:47;;;;;;;0.73;0.50;;;;;;;;;;4438443;28;20115;-60
2021/07/08 13:06:11;;;;;;;0.87;0.60;;;;;;;;;;4439947;28;20036;-61
2021/07/08 13:08:24;;;;;;;1.50;0.70;;;;;;;;;;4445112;28;20036;-60
2021/07/08 13:10:37;;;;;;;0.70;0.60;;;;;;;;;;4436691;28;20398;-61
2021/07/08 13:12:57;;;;;;;0.30;0.30;;;;;;;;;;4436386;28;20036;-61
2021/07/08 13:15:26;;;;;;;0.85;0.52;;;;;;;;;;4442822;28;20599;-60
2021/07/08 13:17:36;;;;;;;0.70;0.52;;;;;;;;;;4442281;28;20610;-60
2021/07/08 13:19:48;;;;;;;0.73;0.50;;;;;;;;;;4438258;28;20045;-60
2021/07/08 13:22:18;;;;;;;1.98;0.80;;;;;;;;;;4500735;28;20260;-60